Time;durP1;ratioP1;P1;durP2;ratioP2;P2;SDS_P1;SDS_P2;PMS_P1;PMS_P2;Temp;Humidity;BMP_temperature;BMP_pressure;BME280_temperature;BME280_humidity;BME280_pressure;Samples;Min_cycle;Max_cycle;Signal;HPM_P1;HPM_P2
2023/04/27 00:00:36;;;;;;;13.35;9.40;;;;;;;3.15;94.35;101876.28;4906339;29;20665;-74
2023/04/27 00:03:04;;;;;;;11.57;8.63;;;;;;;3.06;93.91;101871.94;4907468;29;20033;-74
2023/04/27 00:05:37;;;;;;;10.60;8.85;;;;;;;3.09;94.87;101878.94;4920893;28;20030;-73
2023/04/27 00:08:03;;;;;;;10.55;8.35;;;;;;;3.04;95.07;101880.72;4936130;28;20377;-73
2023/04/27 00:10:29;;;;;;;11.32;9.00;;;;;;;3.06;95.23;101881.59;4908208;28;20032;-75
2023/04/27 00:12:54;;;;;;;12.27;9.38;;;;;;;3.00;94.85;101885.97;4907612;29;20554;-74
2023/04/27 00:15:19;;;;;;;12.15;9.35;;;;;;;3.09;95.36;101881.56;4912794;28;20489;-74
2023/04/27 00:17:45;;;;;;;10.70;8.73;;;;;;;3.04;95.31;101872.81;4917887;28;20447;-74
2023/04/27 00:20:11;;;;;;;12.85;9.23;;;;;;;2.97;95.54;101880.75;4906901;28;20043;-74
2023/04/27 00:22:39;;;;;;;11.48;9.27;;;;;;;2.94;95.69;101877.25;4925440;28;20075;-73
2023/04/27 00:25:06;;;;;;;10.13;8.40;;;;;;;2.96;95.86;101883.34;4908732;28;20094;-74
2023/04/27 00:27:31;;;;;;;12.07;8.48;;;;;;;2.93;96.52;101884.25;4908217;28;20028;-74
2023/04/27 00:29:56;;;;;;;12.95;9.23;;;;;;;2.93;96.46;101884.25;4937815;28;20028;-72
2023/04/27 00:32:22;;;;;;;10.95;8.90;;;;;;;2.89;96.38;101879.03;4907812;29;20657;-73
2023/04/27 00:34:47;;;;;;;9.98;8.73;;;;;;;2.85;96.06;101886.03;4905882;29;20032;-73
2023/04/27 00:37:12;;;;;;;12.38;9.40;;;;;;;2.84;96.47;101886.00;4907220;29;20036;-74
2023/04/27 00:39:38;;;;;;;12.23;8.75;;;;;;;2.79;96.34;101888.66;4906220;28;20038;-75
2023/04/27 00:42:03;;;;;;;11.23;8.50;;;;;;;2.77;96.35;101879.03;4925992;28;20029;-72
2023/04/27 00:44:29;;;;;;;12.32;8.65;;;;;;;2.76;97.38;101880.81;4909521;28;20471;-72
2023/04/27 00:46:54;;;;;;;11.82;8.38;;;;;;;2.76;96.79;101883.44;4907193;28;20027;-72
2023/04/27 00:49:21;;;;;;;10.00;8.30;;;;;;;2.72;97.23;101885.19;4888198;29;20485;-74
2023/04/27 00:51:47;;;;;;;10.25;8.65;;;;;;;2.69;97.70;101877.28;4904664;29;20024;-73
2023/04/27 00:54:15;;;;;;;9.88;8.82;;;;;;;2.65;98.04;101888.69;4909575;28;20170;-73
2023/04/27 00:56:40;;;;;;;11.90;8.70;;;;;;;2.64;97.55;101886.06;4936333;28;20040;-74
2023/04/27 00:59:06;;;;;;;11.73;8.98;;;;;;;2.51;97.58;101879.97;4906393;29;20506;-73
2023/04/27 01:01:32;;;;;;;10.15;9.05;;;;;;;2.53;97.98;101879.94;4900964;29;20032;-74
2023/04/27 01:03:57;;;;;;;12.60;9.45;;;;;;;2.55;98.19;101881.72;4905363;28;20028;-74
2023/04/27 01:06:22;;;;;;;11.63;8.98;;;;;;;2.50;98.29;101871.19;4904761;29;20119;-74
2023/04/27 01:08:48;;;;;;;12.23;10.38;;;;;;;2.50;99.03;101879.06;4906524;29;20024;-73
2023/04/27 01:11:14;;;;;;;12.63;9.52;;;;;;;2.48;99.09;101883.47;4926381;28;20622;-74
2023/04/27 01:13:40;;;;;;;11.68;9.02;;;;;;;2.50;98.91;101884.31;4919204;28;20540;-74
2023/04/27 01:16:05;;;;;;;12.55;9.38;;;;;;;2.46;98.69;101885.19;4906063;28;20071;-74
2023/04/27 01:18:32;;;;;;;13.45;9.13;;;;;;;2.41;97.95;101883.47;4909519;28;20082;-74
2023/04/27 01:20:59;;;;;;;11.25;9.13;;;;;;;2.38;98.64;101884.34;4926488;28;20029;-74
2023/04/27 01:23:25;;;;;;;9.95;8.77;;;;;;;2.34;98.87;101879.97;4907818;28;20055;-72
2023/04/27 01:25:50;;;;;;;10.20;9.07;;;;;;;2.29;98.71;101883.47;4905029;28;20516;-73
2023/04/27 01:28:15;;;;;;;10.73;8.88;;;;;;;2.31;99.21;101890.47;4906627;29;20028;-73
2023/04/27 01:30:41;;;;;;;13.05;9.13;;;;;;;2.25;99.63;101890.47;4920799;29;20040;-74
2023/04/27 01:33:06;;;;;;;11.38;9.20;;;;;;;2.24;99.34;101884.34;4907655;29;20032;-74
2023/04/27 01:35:31;;;;;;;11.57;9.55;;;;;;;2.22;99.16;101885.22;4906500;28;20028;-72
2023/04/27 01:37:57;;;;;;;12.77;9.05;;;;;;;2.14;99.50;101879.97;4929323;28;20029;-73
2023/04/27 01:40:22;;;;;;;16.73;9.32;;;;;;;2.15;100.00;101879.09;4948830;28;20412;-74
2023/04/27 01:42:47;;;;;;;13.45;9.15;;;;;;;2.14;100.00;101877.34;4906587;29;20257;-74
2023/04/27 01:45:13;;;;;;;11.93;9.25;;;;;;;2.13;99.94;101882.56;4904702;29;20070;-73
2023/04/27 01:47:38;;;;;;;12.10;9.90;;;;;;;2.10;100.00;101882.59;4907330;28;20207;-74
2023/04/27 01:50:05;;;;;;;12.30;9.30;;;;;;;2.07;100.00;101885.22;4896926;29;20059;-72
2023/04/27 01:52:30;;;;;;;11.38;9.30;;;;;;;2.03;100.00;101878.22;4905905;29;20043;-76
2023/04/27 01:54:55;;;;;;;14.15;9.85;;;;;;;1.98;100.00;101878.22;4904079;28;20045;-74
2023/04/27 01:57:21;;;;;;;12.65;9.30;;;;;;;1.96;100.00;101867.69;4906275;28;20063;-73
2023/04/27 01:59:46;;;;;;;11.88;9.05;;;;;;;1.91;100.00;101871.19;4904938;29;20039;-75
2023/04/27 02:02:12;;;;;;;10.75;9.30;;;;;;;1.88;100.00;101876.41;4905854;28;20031;-74
2023/04/27 02:04:37;;;;;;;10.90;9.05;;;;;;;1.86;100.00;101879.06;4904223;29;20408;-72
2023/04/27 02:07:02;;;;;;;12.40;10.05;;;;;;;1.80;100.00;101875.53;4904838;29;20032;-74
2023/04/27 02:09:28;;;;;;;11.98;9.18;;;;;;;1.82;100.00;101876.44;4905803;29;20483;-73
2023/04/27 02:11:53;;;;;;;11.20;9.80;;;;;;;1.81;100.00;101875.56;4944644;28;20035;-74
2023/04/27 02:14:19;;;;;;;11.63;9.30;;;;;;;1.69;100.00;101867.66;4903086;28;20516;-75
2023/04/27 02:16:44;;;;;;;12.02;9.75;;;;;;;1.75;100.00;101875.53;4901178;28;20861;-72
2023/04/27 02:19:10;;;;;;;11.82;9.38;;;;;;;1.73;100.00;101866.78;4904873;28;20036;-73
2023/04/27 02:21:35;;;;;;;11.45;9.50;;;;;;;1.70;100.00;101872.03;4904687;28;20028;-74
2023/04/27 02:24:01;;;;;;;11.55;9.90;;;;;;;1.68;100.00;101868.53;4904149;28;20036;-74
2023/04/27 02:26:28;;;;;;;11.77;10.00;;;;;;;1.64;100.00;101865.03;4906048;28;20024;-74
2023/04/27 02:28:55;;;;;;;11.48;9.75;;;;;;;1.60;100.00;101860.66;4896772;29;20028;-75
2023/04/27 02:31:21;;;;;;;10.95;9.77;;;;;;;1.55;100.00;101850.97;4985685;28;20028;-74
2023/04/27 02:33:47;;;;;;;11.38;9.73;;;;;;;1.57;100.00;101857.13;4901963;28;20047;-75
2023/04/27 02:36:12;;;;;;;13.30;9.88;;;;;;;1.51;100.00;101847.50;4904535;28;20112;-75
2023/04/27 02:38:37;;;;;;;14.07;10.75;;;;;;;1.48;100.00;101856.22;4914364;28;20038;-75
2023/04/27 02:41:03;;;;;;;10.85;9.70;;;;;;;1.47;100.00;101846.63;4904605;28;20068;-75
2023/04/27 02:43:28;;;;;;;15.90;10.63;;;;;;;1.46;100.00;101850.13;4907226;28;20415;-73
2023/04/27 02:45:53;;;;;;;13.80;10.68;;;;;;;1.42;100.00;101850.97;4917714;28;20032;-75
2023/04/27 02:48:19;;;;;;;14.88;10.18;;;;;;;1.45;100.00;101857.97;4921253;28;20044;-74
2023/04/27 02:50:44;;;;;;;11.98;9.63;;;;;;;1.40;100.00;101852.72;4937650;28;20049;-72
2023/04/27 02:53:10;;;;;;;14.75;10.43;;;;;;;1.34;100.00;101857.03;4913590;28;20056;-74
2023/04/27 02:55:36;;;;;;;13.68;10.32;;;;;;;1.35;100.00;101857.06;4904350;28;20389;-74
2023/04/27 02:58:02;;;;;;;13.85;10.55;;;;;;;1.36;100.00;101860.56;4904386;28;20121;-74
2023/04/27 03:00:28;;;;;;;13.82;10.23;;;;;;;1.29;100.00;101853.53;4925344;28;20059;-74
2023/04/27 03:02:53;;;;;;;13.82;10.35;;;;;;;1.28;100.00;101855.28;4905341;28;20492;-73
2023/04/27 03:05:19;;;;;;;15.38;10.63;;;;;;;1.27;100.00;101853.53;4904235;28;20445;-72
2023/04/27 03:07:44;;;;;;;12.98;11.10;;;;;;;1.31;100.00;101849.19;4922970;28;20579;-72
2023/04/27 03:10:09;;;;;;;14.02;10.68;;;;;;;1.24;100.00;101843.03;4903070;28;20031;-74
2023/04/27 03:12:35;;;;;;;12.48;10.90;;;;;;;1.24;100.00;101843.03;4903720;29;20409;-73
2023/04/27 03:15:01;;;;;;;12.18;10.45;;;;;;;1.27;100.00;101847.44;4904059;28;20111;-73
2023/04/27 03:17:26;;;;;;;12.70;10.02;;;;;;;1.27;100.00;101847.44;4913434;28;20028;-72
2023/04/27 03:19:52;;;;;;;14.77;10.95;;;;;;;1.22;100.00;101852.66;4904690;29;20601;-74
2023/04/27 03:22:17;;;;;;;12.48;10.77;;;;;;;1.28;100.00;101849.19;4904870;29;20043;-73
2023/04/27 03:24:43;;;;;;;13.15;10.50;;;;;;;1.20;100.00;101859.63;4927588;28;20494;-72
2023/04/27 03:27:08;;;;;;;14.95;10.60;;;;;;;1.22;100.00;101856.16;4894377;29;20036;-72
2023/04/27 03:29:34;;;;;;;13.75;10.50;;;;;;;1.09;100.00;101845.63;4902226;28;20051;-73
2023/04/27 03:31:59;;;;;;;12.77;10.43;;;;;;;1.15;100.00;101866.59;4904055;29;20485;-72
2023/04/27 03:34:25;;;;;;;12.63;10.77;;;;;;;1.16;100.00;101860.50;4910274;29;20036;-71
2023/04/27 03:36:50;;;;;;;15.75;10.73;;;;;;;1.04;100.00;101860.44;4916330;28;20502;-72
2023/04/27 03:39:16;;;;;;;15.32;11.27;;;;;;;1.09;100.00;101863.97;4975204;28;20127;-72
2023/04/27 03:41:41;;;;;;;13.05;10.93;;;;;;;1.07;100.00;101876.19;4901531;28;20036;-73
2023/04/27 03:44:07;;;;;;;13.23;10.10;;;;;;;1.06;100.00;101879.69;4900778;28;20032;-72
2023/04/27 03:46:32;;;;;;;13.15;10.30;;;;;;;1.03;100.00;101870.03;4900365;28;20131;-72
2023/04/27 03:48:58;;;;;;;12.77;10.95;;;;;;;1.01;100.00;101869.19;4901249;28;20046;-73
2023/04/27 03:51:23;;;;;;;16.67;10.98;;;;;;;0.94;100.00;101870.88;4899796;28;20420;-72
2023/04/27 03:53:49;;;;;;;13.48;10.85;;;;;;;0.99;100.00;101866.53;4898610;28;20470;-71
2023/04/27 03:56:14;;;;;;;13.85;11.55;;;;;;;0.94;100.00;101870.88;4898283;28;20551;-74
2023/04/27 03:58:40;;;;;;;14.45;10.98;;;;;;;0.95;100.00;101866.50;4901702;28;20039;-72
2023/04/27 04:01:05;;;;;;;14.35;10.90;;;;;;;0.96;100.00;101871.78;4903013;28;20265;-73
2023/04/27 04:03:30;;;;;;;15.50;10.77;;;;;;;0.88;100.00;101867.34;4903968;28;20036;-73
2023/04/27 04:05:56;;;;;;;13.63;11.10;;;;;;;0.90;100.00;101871.72;4951954;28;20045;-72
2023/04/27 04:08:21;;;;;;;13.98;11.02;;;;;;;0.93;100.00;101874.38;4919532;28;20036;-74
2023/04/27 04:10:47;;;;;;;13.63;10.57;;;;;;;0.92;100.00;101870.00;4910147;28;20056;-73
2023/04/27 04:13:12;;;;;;;14.52;10.65;;;;;;;0.91;100.00;101869.97;4906491;28;20028;-73
2023/04/27 04:15:37;;;;;;;15.35;10.88;;;;;;;0.86;100.00;101862.09;4918400;28;20028;-73
2023/04/27 04:18:03;;;;;;;11.90;10.70;;;;;;;0.88;100.00;101867.34;4918166;28;20039;-74
2023/04/27 04:20:28;;;;;;;16.55;11.55;;;;;;;0.88;100.00;101869.97;4901339;28;20032;-72
2023/04/27 04:22:53;;;;;;;15.05;10.63;;;;;;;0.82;100.00;101876.06;4902246;28;20048;-74
2023/04/27 04:25:19;;;;;;;15.23;10.65;;;;;;;0.83;100.00;101874.31;4903352;28;20028;-74
2023/04/27 04:27:46;;;;;;;14.02;11.18;;;;;;;0.81;100.00;101881.28;4904339;29;20039;-73
2023/04/27 04:30:12;;;;;;;13.13;11.18;;;;;;;0.80;100.00;101883.03;4903365;28;20035;-73
2023/04/27 04:32:38;;;;;;;12.27;10.68;;;;;;;0.77;100.00;101885.63;4911367;28;20492;-74
2023/04/27 04:35:06;;;;;;;13.98;11.23;;;;;;;0.77;100.00;101883.03;4902012;28;20125;-74
2023/04/27 04:37:35;;;;;;;14.23;11.77;;;;;;;0.71;100.00;101888.19;4900321;28;20488;-73
2023/04/27 04:40:07;;;;;;;14.93;11.55;;;;;;;0.74;100.00;101893.47;4901275;28;20162;-74
2023/04/27 04:42:33;;;;;;;13.77;11.60;;;;;;;0.70;100.00;101894.31;4902335;28;20115;-72
2023/04/27 04:44:58;;;;;;;14.48;11.25;;;;;;;0.74;100.00;101903.94;4904429;28;20441;-74
2023/04/27 04:47:24;;;;;;;16.35;11.18;;;;;;;0.76;100.00;101898.75;4914117;28;20500;-74
2023/04/27 04:49:49;;;;;;;15.40;11.48;;;;;;;0.80;100.00;101898.78;4922162;28;20580;-75
2023/04/27 04:52:15;;;;;;;15.75;11.32;;;;;;;0.80;100.00;101905.75;4905668;29;20067;-74
2023/04/27 04:54:40;;;;;;;13.40;11.05;;;;;;;0.75;100.00;101897.84;4906651;28;20540;-72
2023/04/27 04:57:06;;;;;;;13.90;10.70;;;;;;;0.80;100.00;101898.78;4906743;28;20499;-73
2023/04/27 04:59:33;;;;;;;12.65;10.90;;;;;;;0.83;100.00;101901.38;4910114;28;20046;-73
2023/04/27 05:01:58;;;;;;;12.02;10.82;;;;;;;0.81;100.00;101892.66;4920632;28;20348;-73
2023/04/27 05:04:23;;;;;;;14.77;11.25;;;;;;;0.93;100.00;101903.22;4907603;28;20313;-73
2023/04/27 05:06:49;;;;;;;14.25;11.38;;;;;;;0.95;100.00;101901.47;4928993;28;20028;-73
2023/04/27 05:09:14;;;;;;;13.52;11.70;;;;;;;0.98;100.00;101901.50;4938882;28;20025;-73
2023/04/27 05:11:39;;;;;;;16.30;12.02;;;;;;;1.06;100.00;101911.16;4918943;28;20115;-72
2023/04/27 05:14:05;;;;;;;15.32;12.30;;;;;;;1.09;100.00;101906.81;4919382;28;20174;-74
2023/04/27 05:16:30;;;;;;;17.17;13.27;;;;;;;1.12;100.00;101911.16;4938238;28;21583;-72
2023/04/27 05:18:56;;;;;;;15.90;12.32;;;;;;;1.17;100.00;101915.59;4927654;28;20070;-72
2023/04/27 05:21:22;;;;;;;17.88;13.07;;;;;;;1.22;100.00;101915.59;4928498;28;20086;-72
2023/04/27 05:23:47;;;;;;;16.67;12.88;;;;;;;1.27;100.00;101920.88;4905811;29;20032;-72
2023/04/27 05:26:13;;;;;;;14.15;12.35;;;;;;;1.32;100.00;101912.13;4952298;28;20053;-75
2023/04/27 05:28:39;;;;;;;14.50;11.98;;;;;;;1.45;100.00;101921.81;4914479;28;20109;-72
2023/04/27 05:31:05;;;;;;;15.88;12.52;;;;;;;1.55;100.00;101925.38;4941806;28;20109;-73
2023/04/27 05:33:30;;;;;;;15.30;11.93;;;;;;;1.67;100.00;101919.25;4905156;28;20493;-72
2023/04/27 05:35:56;;;;;;;16.15;11.80;;;;;;;1.82;100.00;101914.06;4927593;28;20270;-72
2023/04/27 05:38:22;;;;;;;13.82;12.13;;;;;;;1.98;100.00;101918.47;4923429;28;20040;-73
2023/04/27 05:40:53;;;;;;;18.45;12.23;;;;;;;2.09;100.00;101922.84;4910536;28;20098;-73
2023/04/27 05:43:18;;;;;;;15.73;11.63;;;;;;;2.24;100.00;101928.13;4917254;28;20111;-73
2023/04/27 05:45:44;;;;;;;15.73;11.75;;;;;;;2.37;100.00;101921.13;4929821;28;20111;-73
2023/04/27 05:48:09;;;;;;;15.70;11.73;;;;;;;2.55;100.00;101912.34;4936992;28;20265;-73
2023/04/27 05:50:35;;;;;;;12.70;11.40;;;;;;;2.73;100.00;101917.59;4911266;28;20035;-73
2023/04/27 05:53:00;;;;;;;16.73;11.38;;;;;;;2.93;100.00;101920.22;4896688;28;20032;-73
2023/04/27 05:55:25;;;;;;;14.43;11.48;;;;;;;3.13;100.00;101930.66;4905913;29;20055;-73
2023/04/27 05:57:51;;;;;;;14.70;11.57;;;;;;;3.35;98.30;101924.47;4971842;28;20257;-73
2023/04/27 06:00:18;;;;;;;13.45;10.70;;;;;;;3.53;97.86;101935.78;4919939;28;20343;-73
2023/04/27 06:02:43;;;;;;;15.90;11.75;;;;;;;3.71;96.80;101930.44;4903446;28;20067;-73
2023/04/27 06:05:09;;;;;;;13.23;10.63;;;;;;;3.93;95.38;101932.06;4904870;28;20488;-73
2023/04/27 06:07:36;;;;;;;14.00;10.88;;;;;;;4.13;94.28;101924.03;4907367;28;20039;-73
2023/04/27 06:10:01;;;;;;;12.48;10.82;;;;;;;4.29;92.95;101926.56;4912383;28;20677;-74
2023/04/27 06:12:27;;;;;;;14.57;11.05;;;;;;;4.37;91.58;101922.97;4904311;29;20032;-73
2023/04/27 06:14:52;;;;;;;15.25;10.68;;;;;;;4.46;89.73;101930.78;4905748;28;20028;-73
2023/04/27 06:17:18;;;;;;;14.90;10.50;;;;;;;4.59;89.07;101930.69;4916195;28;20034;-72
2023/04/27 06:19:43;;;;;;;13.98;10.63;;;;;;;4.70;89.07;101926.22;4922473;28;20039;-73
2023/04/27 06:22:10;;;;;;;19.15;11.18;;;;;;;4.79;88.82;101917.34;4904677;28;20032;-72
2023/04/27 06:24:35;;;;;;;12.02;10.55;;;;;;;5.06;89.07;101922.34;4948336;28;20117;-73
2023/04/27 06:27:01;;;;;;;14.35;10.70;;;;;;;5.16;86.41;101913.41;4955290;28;20032;-74
2023/04/27 06:29:26;;;;;;;13.32;10.55;;;;;;;5.36;86.46;101917.59;4905474;28;20576;-75
2023/04/27 06:31:52;;;;;;;12.27;10.45;;;;;;;5.76;85.93;101923.22;4903313;28;20028;-74
2023/04/27 06:34:17;;;;;;;13.93;10.15;;;;;;;5.75;83.66;101917.06;4903504;28;20051;-74
2023/04/27 06:36:42;;;;;;;14.40;10.00;;;;;;;5.83;82.33;101918.72;4911408;28;20036;-75
2023/04/27 06:39:08;;;;;;;14.07;10.27;;;;;;;5.93;83.11;101915.94;4896272;28;20048;-73
2023/04/27 06:41:33;;;;;;;13.10;9.25;;;;;;;6.11;80.93;101924.53;4902333;28;20148;-74
2023/04/27 06:43:58;;;;;;;11.35;8.85;;;;;;;6.29;79.59;101920.72;4904996;28;20139;-74
2023/04/27 06:46:24;;;;;;;14.18;9.40;;;;;;;6.56;80.49;101917.59;4904457;29;20035;-74
2023/04/27 06:48:50;;;;;;;14.90;9.18;;;;;;;6.62;78.33;101917.50;4904723;29;20456;-74
2023/04/27 06:51:15;;;;;;;12.35;9.27;;;;;;;6.86;78.07;101920.63;4911966;28;20028;-74
2023/04/27 06:53:41;;;;;;;14.05;9.10;;;;;;;6.95;77.56;101918.69;4905303;28;20051;-73
2023/04/27 06:56:10;;;;;;;12.32;8.70;;;;;;;7.22;76.06;101919.03;4904368;28;20051;-74
2023/04/27 06:58:36;;;;;;;12.13;8.25;;;;;;;7.41;74.95;101923.09;4905428;28;20713;-75
2023/04/27 07:01:02;;;;;;;12.15;8.85;;;;;;;7.56;72.34;101923.66;4923059;28;20043;-74
2023/04/27 07:03:28;;;;;;;10.75;8.30;;;;;;;7.63;71.64;101925.28;4903150;28;20052;-74
2023/04/27 07:05:56;;;;;;;11.25;8.40;;;;;;;7.70;71.16;101926.91;4923572;28;20046;-72
2023/04/27 07:08:21;;;;;;;13.15;9.20;;;;;;;7.67;69.84;101922.53;4901221;28;20032;-74
2023/04/27 07:10:47;;;;;;;12.85;9.10;;;;;;;7.87;70.06;101919.44;4905074;28;20032;-74
2023/04/27 07:13:12;;;;;;;12.15;8.00;;;;;;;8.10;68.39;101908.28;4899869;28;20035;-73
2023/04/27 07:15:37;;;;;;;11.60;8.93;;;;;;;8.26;69.19;101908.81;4905202;29;20243;-74
2023/04/27 07:18:03;;;;;;;11.45;8.90;;;;;;;8.27;67.55;101902.59;4905151;28;20075;-73
2023/04/27 07:20:28;;;;;;;14.43;8.55;;;;;;;8.26;67.88;101898.19;4908368;28;20044;-72
2023/04/27 07:22:54;;;;;;;11.55;8.30;;;;;;;8.50;66.81;101903.84;4897436;28;20032;-73
2023/04/27 07:25:20;;;;;;;12.13;8.52;;;;;;;8.74;65.96;101900.56;4901905;28;20036;-73
2023/04/27 07:27:45;;;;;;;14.00;8.70;;;;;;;9.08;64.96;101910.28;4906342;29;20027;-74
2023/04/27 07:30:13;;;;;;;10.85;8.45;;;;;;;9.47;64.05;101906.47;4901371;29;20399;-74
2023/04/27 07:32:41;;;;;;;10.55;8.60;;;;;;;9.71;62.55;101910.19;4900758;28;20055;-74
2023/04/27 07:35:08;;;;;;;12.52;8.40;;;;;;;10.16;63.23;101906.16;4902645;28;20269;-75
2023/04/27 07:37:37;;;;;;;10.40;8.35;;;;;;;10.56;61.04;101910.19;4902361;28;20032;-74
2023/04/27 07:40:09;;;;;;;10.98;7.80;;;;;;;11.24;59.17;101909.53;4898850;28;20059;-72
2023/04/27 07:42:37;;;;;;;18.15;8.73;;;;;;;11.62;56.53;101905.47;4906764;28;20063;-73
2023/04/27 07:45:02;;;;;;;13.35;8.15;;;;;;;11.95;54.87;101916.66;4901971;28;20264;-74
2023/04/27 07:47:28;;;;;;;15.57;7.78;;;;;;;12.14;54.00;101900.75;4918003;29;20472;-72
2023/04/27 07:49:54;;;;;;;10.68;7.38;;;;;;;12.12;52.44;101902.63;4903349;28;20036;-74
2023/04/27 07:52:20;;;;;;;8.40;6.90;;;;;;;11.93;51.35;101904.28;4904690;28;20082;-75
2023/04/27 07:54:45;;;;;;;9.77;7.18;;;;;;;12.05;51.04;101905.59;4902525;28;20570;-73
2023/04/27 07:57:11;;;;;;;8.52;6.53;;;;;;;12.07;49.97;101899.25;4904544;28;20337;-73
2023/04/27 07:59:37;;;;;;;10.10;6.82;;;;;;;12.05;50.77;101897.59;4910935;28;20515;-73
2023/04/27 08:02:02;;;;;;;9.07;6.93;;;;;;;11.98;51.54;101894.28;4908014;28;20020;-74
2023/04/27 08:04:28;;;;;;;9.23;7.05;;;;;;;12.29;50.29;101901.94;4918328;29;20115;-72
2023/04/27 08:06:53;;;;;;;10.15;6.70;;;;;;;12.42;50.88;101904.97;4907670;28;20039;-74
2023/04/27 08:09:19;;;;;;;10.95;6.85;;;;;;;13.12;49.67;101903.72;4905122;28;20028;-73
2023/04/27 08:11:44;;;;;;;9.00;6.55;;;;;;;13.34;48.15;101896.50;4902645;28;20431;-74
2023/04/27 08:14:12;;;;;;;9.57;6.85;;;;;;;13.83;46.37;101901.38;4901990;29;20415;-74
2023/04/27 08:16:42;;;;;;;9.95;6.32;;;;;;;14.06;45.45;101913.66;4929789;28;20203;-73
2023/04/27 08:19:08;;;;;;;9.18;5.95;;;;;;;14.58;43.72;101900.38;4937410;28;20032;-75
2023/04/27 08:21:37;;;;;;;8.88;6.20;;;;;;;15.03;43.04;101902.50;4904670;29;20480;-74
2023/04/27 08:24:03;;;;;;;6.95;6.00;;;;;;;15.52;43.33;101896.31;4903158;28;20036;-74
2023/04/27 08:26:29;;;;;;;7.88;5.80;;;;;;;16.19;41.49;101900.63;4909807;28;20047;-72
2023/04/27 08:28:58;;;;;;;8.65;5.93;;;;;;;16.30;38.79;101887.44;4907445;28;20040;-74
2023/04/27 08:31:24;;;;;;;8.55;4.97;;;;;;;16.20;38.42;101894.28;4894708;28;20031;-74
2023/04/27 08:33:51;;;;;;;7.85;4.90;;;;;;;16.23;37.37;101894.09;4910623;28;20036;-72
2023/04/27 08:36:18;;;;;;;6.22;4.72;;;;;;;16.52;37.19;101872.72;4909185;28;20240;-74
2023/04/27 08:38:43;;;;;;;9.70;5.70;;;;;;;16.06;36.58;101870.91;4928305;28;20025;-73
2023/04/27 08:41:09;;;;;;;6.80;5.13;;;;;;;16.27;37.68;101870.63;4931467;28;20059;-74
2023/04/27 08:43:35;;;;;;;5.97;5.03;;;;;;;16.50;37.16;101861.19;4944024;28;20028;-74
2023/04/27 08:46:01;;;;;;;10.43;5.25;;;;;;;16.79;36.62;101863.03;4905731;28;20468;-74
2023/04/27 08:48:27;;;;;;;7.25;5.40;;;;;;;16.78;35.41;101866.69;4914484;28;20037;-73
2023/04/27 08:50:55;;;;;;;7.55;4.90;;;;;;;16.90;35.55;101870.44;4898271;28;20027;-73
2023/04/27 08:53:22;;;;;;;8.35;5.45;;;;;;;17.25;33.52;101865.56;4921762;28;20040;-74
2023/04/27 08:55:48;;;;;;;4.93;4.13;;;;;;;17.91;34.14;101875.69;4936979;28;20384;-73
2023/04/27 08:58:14;;;;;;;5.60;4.15;;;;;;;17.80;32.84;101872.84;4905238;28;20024;-73
2023/04/27 09:00:42;;;;;;;6.22;4.68;;;;;;;18.00;32.78;101871.53;4903027;28;20032;-74
2023/04/27 09:03:18;;;;;;;5.90;4.40;;;;;;;18.62;34.09;101868.28;4912502;28;20160;-74
2023/04/27 09:05:47;;;;;;;7.47;5.20;;;;;;;18.97;31.43;101863.16;4910954;28;20036;-74
2023/04/27 09:08:13;;;;;;;8.05;4.72;;;;;;;18.96;30.48;101863.28;4907232;28;20031;-75
2023/04/27 09:10:46;;;;;;;6.10;5.10;;;;;;;18.75;31.55;101865.66;4909033;28;20028;-74
2023/04/27 09:13:11;;;;;;;6.80;4.93;;;;;;;18.90;30.86;101856.50;4919980;28;20039;-74
2023/04/27 09:15:45;;;;;;;6.15;5.03;;;;;;;19.40;30.94;101860.16;4909530;28;20496;-72
2023/04/27 09:18:19;;;;;;;7.88;5.57;;;;;;;19.61;30.32;101863.16;4912064;28;20039;-73
2023/04/27 09:20:46;;;;;;;8.20;5.90;;;;;;;19.97;28.87;101856.00;4919397;28;20058;-72
2023/04/27 09:23:26;;;;;;;7.35;5.00;;;;;;;20.19;30.26;101863.38;4907848;28;20032;-73
2023/04/27 09:25:53;;;;;;;7.25;5.45;;;;;;;19.66;28.09;101869.09;4918315;28;20032;-73
2023/04/27 09:28:19;;;;;;;6.38;5.47;;;;;;;19.36;29.02;101861.34;4916087;28;20118;-73
2023/04/27 09:30:52;;;;;;;7.20;5.22;;;;;;;19.44;29.41;101863.47;4905962;28;20098;-72
2023/04/27 09:33:25;;;;;;;6.78;5.38;;;;;;;19.41;28.94;101865.41;4909869;28;20203;-73
2023/04/27 09:35:51;;;;;;;7.38;5.68;;;;;;;19.68;28.04;101855.47;4948487;28;20022;-73
2023/04/27 09:38:18;;;;;;;5.88;4.68;;;;;;;20.04;28.89;101858.13;4924439;28;20115;-73
2023/04/27 09:40:44;;;;;;;5.57;4.30;;;;;;;20.40;27.39;101854.50;4906021;29;20032;-72
2023/04/27 09:43:10;;;;;;;5.32;4.82;;;;;;;20.41;26.69;101855.38;4906117;29;20031;-74
2023/04/27 09:45:37;;;;;;;5.85;4.90;;;;;;;20.54;26.56;101844.50;4906447;29;20056;-73
2023/04/27 09:48:04;;;;;;;5.40;4.72;;;;;;;20.48;25.62;101839.50;4906789;28;20050;-73
2023/04/27 09:50:35;;;;;;;6.93;5.13;;;;;;;20.87;26.70;101844.56;4903000;28;20028;-74
2023/04/27 09:53:01;;;;;;;6.07;4.65;;;;;;;20.63;25.57;101843.78;4926235;28;20063;-74
2023/04/27 09:55:31;;;;;;;6.53;4.57;;;;;;;21.24;26.20;101843.50;4902930;28;20067;-74
2023/04/27 09:58:19;;;;;;;6.35;4.90;;;;;;;21.59;25.99;101844.25;4906423;28;20491;-74
2023/04/27 10:01:06;;;;;;;6.53;4.90;;;;;;;22.46;25.81;101835.25;4889048;28;20032;-74
2023/04/27 10:03:55;;;;;;;6.72;4.70;;;;;;;22.99;24.93;101840.63;4902973;28;20028;-74
2023/04/27 10:06:44;;;;;;;5.30;4.35;;;;;;;22.76;23.36;101843.47;4954454;28;20163;-72
2023/04/27 10:09:10;;;;;;;6.35;4.10;;;;;;;22.87;23.71;101829.84;4933500;28;20130;-74
2023/04/27 10:11:40;;;;;;;4.95;3.95;;;;;;;23.08;23.63;101828.97;4898683;28;20071;-72
2023/04/27 10:14:08;;;;;;;5.35;4.07;;;;;;;23.24;23.48;101823.91;4906071;29;20020;-73
2023/04/27 10:16:53;;;;;;;6.07;4.40;;;;;;;23.14;25.67;101833.84;4906226;29;20027;-74
2023/04/27 10:19:20;;;;;;;7.00;4.70;;;;;;;22.35;23.87;101826.16;4921977;28;20437;-74
2023/04/27 10:21:59;;;;;;;6.10;4.63;;;;;;;22.22;25.54;101830.94;4909229;28;20036;-74
2023/04/27 10:24:39;;;;;;;6.35;4.85;;;;;;;21.61;24.53;101845.00;4904515;28;20038;-74
2023/04/27 10:27:10;;;;;;;5.32;4.38;;;;;;;20.78;24.96;101836.34;4896017;29;20111;-74
2023/04/27 10:29:43;;;;;;;6.70;4.80;;;;;;;21.22;25.81;101845.47;4902788;29;20079;-74
2023/04/27 10:32:10;;;;;;;5.85;5.22;;;;;;;20.95;24.16;101848.53;4903230;28;20021;-73
2023/04/27 10:34:36;;;;;;;6.88;5.18;;;;;;;20.95;24.36;101845.84;4897637;28;20042;-73
2023/04/27 10:37:10;;;;;;;6.60;5.03;;;;;;;21.20;25.00;101836.63;4905296;29;20158;-74
2023/04/27 10:39:40;;;;;;;6.13;4.88;;;;;;;22.17;24.72;101838.59;4904450;28;20040;-74
2023/04/27 10:42:06;;;;;;;7.88;5.25;;;;;;;22.14;23.20;101841.56;4917534;28;20031;-73
2023/04/27 10:44:33;;;;;;;6.82;5.38;;;;;;;21.58;23.77;101842.53;4905572;29;20039;-73
2023/04/27 10:47:16;;;;;;;6.05;5.07;;;;;;;21.44;25.64;101833.78;4905558;28;20113;-74
2023/04/27 10:49:42;;;;;;;7.03;5.32;;;;;;;21.43;24.18;101824.81;4903247;29;20402;-73
2023/04/27 10:52:07;;;;;;;6.35;5.50;;;;;;;21.48;24.22;101827.13;4904145;29;20058;-73
2023/04/27 10:54:35;;;;;;;6.03;4.70;;;;;;;22.03;23.27;101819.88;4904606;28;20509;-74
2023/04/27 10:57:06;;;;;;;6.28;5.15;;;;;;;21.50;23.23;101817.91;4946119;28;20030;-73
2023/04/27 10:59:32;;;;;;;6.35;5.20;;;;;;;20.84;23.42;101819.59;4905748;28;20035;-73
2023/04/27 11:01:57;;;;;;;5.85;4.90;;;;;;;21.06;24.55;101819.63;4905497;29;20425;-74
2023/04/27 11:04:22;;;;;;;5.65;4.90;;;;;;;21.39;23.85;101812.50;4903854;29;20028;-74
2023/04/27 11:06:49;;;;;;;5.57;4.90;;;;;;;21.17;23.22;101804.38;4936926;28;20543;-74
2023/04/27 11:09:25;;;;;;;5.95;5.38;;;;;;;21.55;23.97;101810.25;4903398;29;20036;-74
2023/04/27 11:11:51;;;;;;;6.88;5.30;;;;;;;21.79;23.72;101793.84;4895429;29;20043;-74
2023/04/27 11:14:20;;;;;;;7.13;5.68;;;;;;;21.64;23.30;101795.09;4904787;29;20035;-73
2023/04/27 11:16:46;;;;;;;6.03;5.00;;;;;;;22.08;23.21;101788.69;4904641;29;20032;-73